Time;durP1;ratioP1;P1;durP2;ratioP2;P2;SDS_P1;SDS_P2;PMS_P1;PMS_P2;Temp;Humidity;BMP_temperature;BMP_pressure;BME280_temperature;BME280_humidity;BME280_pressure;Samples;Min_cycle;Max_cycle;Signal;HPM_P1;HPM_P2
2022/12/23 00:00:56;;;;;;;8.63;4.07;;;11.90;90.80;;;;;;5037089;28;20028;-60
2022/12/23 00:03:22;;;;;;;;;;;11.90;90.80;;;;;;5052803;28;20430;-59
2022/12/23 00:05:48;;;;;;;13.07;4.95;;;11.90;90.80;;;;;;5052105;28;19912;-59
2022/12/23 00:08:14;;;;;;;7.70;4.45;;;11.80;90.90;;;;;;5052261;28;20111;-59
2022/12/23 00:10:40;;;;;;;6.72;4.10;;;11.80;90.90;;;;;;5041108;28;20127;-68
2022/12/23 00:16:07;;;;;;;5.97;3.75;;;11.80;90.90;;;;;;5045731;28;20434;-59
2022/12/23 00:18:33;;;;;;;11.98;4.88;;;11.80;91.20;;;;;;5041638;28;20049;-68
2022/12/23 00:21:01;;;;;;;9.63;4.70;;;11.90;90.90;;;;;;5053165;28;20017;-59
2022/12/23 00:23:27;;;;;;;17.02;5.22;;;11.80;90.90;;;;;;5057434;28;20033;-58
2022/12/23 00:25:52;;;;;;;5.07;3.47;;;11.80;90.90;;;;;;5050662;28;20025;-59
2022/12/23 00:28:21;;;;;;;8.57;4.72;;;11.80;90.90;;;;;;5052087;28;20048;-59
2022/12/23 00:31:07;;;;;;;5.07;4.03;;;11.90;90.90;;;;;;5055310;28;20428;-59
2022/12/23 00:33:38;;;;;;;6.20;3.95;;;11.90;90.90;;;;;;5034159;28;20116;-68
2022/12/23 00:36:28;;;;;;;13.90;5.68;;;11.90;90.90;;;;;;5035573;28;20031;-67
2022/12/23 00:44:25;;;;;;;10.95;5.50;;;11.90;90.90;;;;;;5038311;28;20048;-68
2022/12/23 00:46:50;;;;;;;15.70;6.10;;;11.90;90.90;;;;;;5046000;28;20487;-59
2022/12/23 00:52:03;;;;;;;10.95;5.32;;;11.80;90.90;;;;;;5053188;28;20103;-59
2022/12/23 00:54:30;;;;;;;10.18;4.78;;;11.80;91.00;;;;;;5049144;28;20416;-59
2022/12/23 00:56:57;;;;;;;9.40;6.15;;;11.90;91.00;;;;;;5046072;28;20103;-68
2022/12/23 00:59:22;;;;;;;9.70;5.63;;;11.90;90.90;;;;;;5038575;28;20312;-67
2022/12/23 01:07:17;;;;;;;9.93;5.75;;;11.90;90.90;;;;;;5053855;28;20076;-67
2022/12/23 01:09:43;;;;;;;6.72;3.83;;;11.90;90.90;;;;;;5046988;28;20503;-59
2022/12/23 01:12:08;;;;;;;7.75;4.60;;;11.90;90.90;;;;;;5052590;28;20112;-59
2022/12/23 01:14:34;;;;;;;7.45;4.72;;;11.90;90.90;;;;;;5051552;28;20024;-59
2022/12/23 01:17:00;;;;;;;8.10;4.97;;;12.00;90.90;;;;;;5049867;28;20078;-67
2022/12/23 01:19:26;;;;;;;6.68;4.32;;;11.90;91.10;;;;;;5050465;28;20029;-67
2022/12/23 01:21:51;;;;;;;7.15;3.83;;;11.90;90.80;;;;;;5045700;28;20442;-67
2022/12/23 01:24:17;;;;;;;9.40;4.18;;;12.00;90.80;;;;;;5051799;28;20039;-60
2022/12/23 01:26:43;;;;;;;8.23;3.83;;;12.00;90.70;;;;;;5040872;28;20096;-68
2022/12/23 01:29:08;;;;;;;8.82;5.10;;;12.00;90.70;;;;;;5047089;28;20096;-68
2022/12/23 01:31:34;;;;;;;6.30;3.97;;;11.90;90.70;;;;;;5050361;28;20025;-59
2022/12/23 01:34:00;;;;;;;7.57;4.32;;;11.90;90.80;;;;;;5048839;28;20603;-67
2022/12/23 01:36:26;;;;;;;6.38;4.50;;;11.90;90.80;;;;;;5045032;28;20052;-59
2022/12/23 01:38:51;;;;;;;8.25;3.75;;;11.90;90.80;;;;;;5045929;28;20069;-59
2022/12/23 01:44:49;;;;;;;5.43;3.63;;;12.00;90.70;;;;;;5036091;28;20522;-59
2022/12/23 01:47:30;;;;;;;8.80;4.07;;;12.00;90.60;;;;;;5030977;28;20044;-59
2022/12/23 01:50:11;;;;;;;9.63;4.07;;;11.90;90.70;;;;;;5050655;28;20076;-59
2022/12/23 01:52:46;;;;;;;4.72;3.08;;;11.90;90.70;;;;;;5048746;28;20048;-67
2022/12/23 01:55:15;;;;;;;5.38;3.33;;;11.90;90.70;;;;;;5042954;28;20040;-59
2022/12/23 01:57:43;;;;;;;6.47;3.05;;;11.90;90.70;;;;;;5040044;28;20024;-67
2022/12/23 02:05:38;;;;;;;5.40;3.30;;;12.00;90.60;;;;;;5046307;28;20040;-68
2022/12/23 02:11:09;;;;;;;5.78;3.20;;;11.90;90.60;;;;;;5049027;28;20518;-59
2022/12/23 02:16:43;;;;;;;3.88;3.00;;;11.90;90.70;;;;;;5047626;28;20387;-59
2022/12/23 02:19:26;;;;;;;8.15;4.90;;;11.90;90.70;;;;;;5048936;28;20523;-59
2022/12/23 02:22:26;;;;;;;5.40;3.55;;;11.90;90.60;;;;;;5043127;28;20086;-68
2022/12/23 02:25:01;;;;;;;5.95;4.00;;;11.90;90.60;;;;;;5043772;28;20120;-59
2022/12/23 02:27:39;;;;;;;5.10;3.17;;;11.90;90.60;;;;;;5040713;28;20033;-60
2022/12/23 02:30:23;;;;;;;4.55;3.03;;;11.90;90.60;;;;;;5048886;28;20079;-59
2022/12/23 02:33:10;;;;;;;6.32;4.25;;;11.90;90.60;;;;;;5043953;28;20053;-67
2022/12/23 02:35:42;;;;;;;7.72;3.92;;;11.90;90.50;;;;;;5047964;28;20120;-68
2022/12/23 02:38:19;;;;;;;8.60;3.95;;;11.80;90.60;;;;;;5042245;28;20021;-67
2022/12/23 02:41:21;;;;;;;5.50;3.60;;;11.90;90.60;;;;;;5044462;28;20029;-68
2022/12/23 02:44:31;;;;;;;8.80;4.15;;;11.90;90.50;;;;;;5039614;28;20570;-59
2022/12/23 02:47:04;;;;;;;7.15;4.60;;;11.90;90.50;;;;;;5043982;28;20040;-66
2022/12/23 02:49:34;;;;;;;4.70;3.45;;;11.90;90.50;;;;;;5044687;28;20136;-60
2022/12/23 02:52:05;;;;;;;5.60;3.90;;;11.90;90.50;;;;;;5040672;28;20037;-60
2022/12/23 02:54:41;;;;;;;6.15;4.40;;;11.90;90.50;;;;;;5047833;28;20380;-68
2022/12/23 02:57:10;;;;;;;6.80;4.03;;;11.90;90.50;;;;;;5044739;28;20058;-68
2022/12/23 02:59:41;;;;;;;11.82;4.63;;;11.90;90.40;;;;;;5051671;28;20107;-59
2022/12/23 03:02:07;;;;;;;5.60;3.63;;;11.90;90.40;;;;;;5046260;28;20033;-68
2022/12/23 03:04:32;;;;;;;6.47;3.38;;;11.90;90.40;;;;;;5049111;28;20043;-59
2022/12/23 03:06:59;;;;;;;6.20;3.67;;;12.00;90.40;;;;;;5048895;28;20025;-59
2022/12/23 03:09:59;;;;;;;5.90;3.72;;;12.00;90.30;;;;;;5047002;28;20087;-59
2022/12/23 03:12:42;;;;;;;6.53;3.60;;;12.00;90.30;;;;;;5041311;28;20067;-68
2022/12/23 03:15:22;;;;;;;6.07;3.78;;;11.90;90.30;;;;;;5043516;28;20024;-67
2022/12/23 03:18:06;;;;;;;4.95;2.50;;;11.90;90.30;;;;;;5057128;28;20041;-68
2022/12/23 03:20:37;;;;;;;5.70;2.97;;;11.90;90.30;;;;;;5048767;28;20043;-60
2022/12/23 03:23:06;;;;;;;5.35;3.47;;;11.80;90.30;;;;;;5053494;28;20021;-68
2022/12/23 03:25:39;;;;;;;6.57;3.80;;;11.80;90.30;;;;;;5047793;28;20033;-59
2022/12/23 03:28:26;;;;;;;5.57;3.65;;;11.80;90.20;;;;;;5055348;28;20067;-59
2022/12/23 03:30:55;;;;;;;3.97;2.63;;;11.80;90.20;;;;;;5048266;28;20113;-67
2022/12/23 03:33:26;;;;;;;5.80;3.22;;;11.80;90.30;;;;;;5047654;28;20025;-67
2022/12/23 03:36:06;;;;;;;5.40;2.95;;;11.80;90.30;;;;;;5049513;28;20104;-58
2022/12/23 03:38:35;;;;;;;6.20;3.03;;;11.80;90.20;;;;;;5049912;28;20021;-59
2022/12/23 03:41:06;;;;;;;3.35;2.45;;;11.80;90.20;;;;;;5049360;28;20589;-68
2022/12/23 03:43:39;;;;;;;4.82;2.92;;;11.80;90.20;;;;;;5038316;28;20037;-67
2022/12/23 03:46:18;;;;;;;3.83;2.60;;;11.80;90.10;;;;;;5047731;28;20071;-68
2022/12/23 03:48:54;;;;;;;3.97;1.50;;;11.90;90.10;;;;;;5053431;28;20017;-68
2022/12/23 03:51:25;;;;;;;2.75;2.22;;;11.80;90.10;;;;;;5045252;28;20031;-59
2022/12/23 03:53:59;;;;;;;3.15;2.08;;;11.80;90.10;;;;;;5049115;28;20087;-68
2022/12/23 03:56:30;;;;;;;2.13;1.67;;;11.80;90.10;;;;;;5033534;28;20124;-68
2022/12/23 03:59:07;;;;;;;2.03;1.45;;;11.80;90.10;;;;;;5050556;28;20021;-59
2022/12/23 04:02:01;;;;;;;2.38;1.80;;;11.80;90.00;;;;;;5046393;28;20029;-68
2022/12/23 04:04:37;;;;;;;4.55;2.15;;;11.80;90.00;;;;;;5039147;28;20029;-59
2022/12/23 04:07:09;;;;;;;3.22;2.40;;;11.80;90.00;;;;;;5044463;28;20036;-60
2022/12/23 04:09:35;;;;;;;1.90;1.70;;;11.80;90.00;;;;;;5046303;28;20381;-59
2022/12/23 04:12:01;;;;;;;3.20;2.03;;;11.80;90.00;;;;;;5049893;28;20383;-59
2022/12/23 04:14:27;;;;;;;3.58;2.17;;;11.80;89.90;;;;;;5049753;28;20025;-59
2022/12/23 04:16:57;;;;;;;2.15;1.95;;;11.80;90.00;;;;;;5047426;28;20025;-59
2022/12/23 04:19:23;;;;;;;1.98;1.42;;;11.90;89.90;;;;;;5046778;28;20024;-59
2022/12/23 04:21:48;;;;;;;3.17;2.10;;;11.80;89.80;;;;;;5044356;28;20043;-68
2022/12/23 04:24:14;;;;;;;3.80;2.40;;;11.80;89.80;;;;;;5045339;28;20396;-59
2022/12/23 04:26:40;;;;;;;5.57;1.88;;;11.80;89.80;;;;;;5045226;28;20036;-59
2022/12/23 04:29:05;;;;;;;2.10;1.92;;;11.80;89.70;;;;;;5048705;28;20485;-68
2022/12/23 04:31:31;;;;;;;2.78;2.20;;;11.80;89.70;;;;;;5055592;28;20512;-59
2022/12/23 04:33:57;;;;;;;3.15;2.17;;;11.80;89.80;;;;;;5056993;28;20028;-59
2022/12/23 04:36:22;;;;;;;2.95;2.55;;;11.70;89.70;;;;;;5041152;28;20025;-59
2022/12/23 04:38:48;;;;;;;3.67;2.42;;;11.70;89.70;;;;;;5048426;28;20164;-59
2022/12/23 04:41:14;;;;;;;4.05;2.33;;;11.70;89.70;;;;;;5050120;28;20021;-59
2022/12/23 04:43:39;;;;;;;3.25;2.15;;;11.70;89.70;;;;;;5049620;28;20052;-59
2022/12/23 04:46:05;;;;;;;3.10;1.80;;;11.70;89.60;;;;;;5052750;28;20028;-68
2022/12/23 04:48:30;;;;;;;1.77;1.67;;;11.70;89.70;;;;;;5054664;28;20028;-59
2022/12/23 04:50:56;;;;;;;2.33;1.85;;;11.70;89.70;;;;;;5038086;28;20037;-59
2022/12/23 04:53:25;;;;;;;3.78;2.42;;;11.60;89.60;;;;;;5027508;28;20033;-68
2022/12/23 04:55:51;;;;;;;3.15;2.45;;;11.60;89.60;;;;;;5040306;28;20092;-59
2022/12/23 04:58:16;;;;;;;3.38;1.83;;;11.60;89.70;;;;;;5045424;28;20518;-59
2022/12/23 05:00:42;;;;;;;2.42;1.88;;;11.60;89.60;;;;;;5034529;28;20045;-68
2022/12/23 05:03:08;;;;;;;2.70;1.77;;;11.60;89.50;;;;;;5046400;28;20056;-59
2022/12/23 05:05:33;;;;;;;5.78;2.08;;;11.70;89.50;;;;;;5048882;28;20033;-59
2022/12/23 05:08:04;;;;;;;5.10;1.95;;;11.70;89.30;;;;;;5053759;28;20084;-59
2022/12/23 05:10:30;;;;;;;4.13;2.58;;;11.70;89.40;;;;;;5032353;28;20115;-59
2022/12/23 05:12:55;;;;;;;2.47;1.90;;;11.60;89.40;;;;;;5033290;28;21725;-59
2022/12/23 05:15:21;;;;;;;4.32;2.03;;;11.60;89.30;;;;;;5045863;28;20389;-59
2022/12/23 05:17:47;;;;;;;4.55;2.83;;;11.60;89.30;;;;;;5051216;28;20451;-68
2022/12/23 05:20:12;;;;;;;3.80;2.55;;;11.70;89.20;;;;;;5052973;28;20036;-67
2022/12/23 05:22:38;;;;;;;3.92;2.55;;;11.60;89.20;;;;;;5043410;28;20531;-68
2022/12/23 05:25:04;;;;;;;4.05;2.38;;;11.60;89.10;;;;;;5042670;28;20037;-68
2022/12/23 05:27:30;;;;;;;6.35;2.70;;;11.60;89.20;;;;;;5047105;28;20044;-67
2022/12/23 05:29:55;;;;;;;3.05;2.60;;;11.60;89.20;;;;;;5049675;28;20036;-67
2022/12/23 05:32:21;;;;;;;4.53;2.30;;;11.60;89.20;;;;;;5048911;28;20029;-67
2022/12/23 05:34:47;;;;;;;2.38;2.00;;;11.60;89.10;;;;;;5057223;28;21161;-68
2022/12/23 05:37:12;;;;;;;3.13;2.78;;;11.60;89.20;;;;;;5051709;28;20020;-68
2022/12/23 05:39:38;;;;;;;3.80;2.55;;;11.60;89.20;;;;;;5046285;28;20514;-68
2022/12/23 05:42:04;;;;;;;5.22;2.85;;;11.60;89.20;;;;;;5045554;28;20373;-59
2022/12/23 05:44:30;;;;;;;3.55;2.67;;;11.60;89.10;;;;;;5058534;28;20111;-59
2022/12/23 05:46:55;;;;;;;4.05;2.80;;;11.60;89.20;;;;;;5049600;28;20024;-59
2022/12/23 05:49:21;;;;;;;4.90;2.65;;;11.60;89.10;;;;;;5047035;28;20726;-59
2022/12/23 05:51:47;;;;;;;4.13;2.30;;;11.60;89.00;;;;;;5049328;28;20148;-59
2022/12/23 05:54:13;;;;;;;4.38;1.98;;;11.60;89.00;;;;;;5054326;28;20033;-68
2022/12/23 05:56:40;;;;;;;2.83;2.13;;;11.60;89.10;;;;;;5049191;28;20469;-59
2022/12/23 05:59:05;;;;;;;4.20;2.40;;;11.60;89.10;;;;;;5041492;28;20021;-67
2022/12/23 06:01:31;;;;;;;7.10;2.40;;;11.70;89.00;;;;;;5039873;28;20083;-59
2022/12/23 06:03:57;;;;;;;3.05;2.60;;;11.60;88.90;;;;;;5042081;28;20063;-60
2022/12/23 06:06:22;;;;;;;3.13;2.35;;;11.60;88.80;;;;;;5053713;28;20033;-59
2022/12/23 06:08:48;;;;;;;4.13;2.50;;;11.60;88.80;;;;;;5050151;28;20037;-59
2022/12/23 06:11:14;;;;;;;3.58;1.52;;;11.70;88.80;;;;;;5042607;28;20033;-59
2022/12/23 06:13:39;;;;;;;2.75;2.00;;;11.60;88.80;;;;;;5047795;28;20067;-59
2022/12/23 06:16:05;;;;;;;2.50;2.17;;;11.70;88.90;;;;;;5045349;28;20143;-68
2022/12/23 06:18:31;;;;;;;2.58;2.00;;;11.70;88.90;;;;;;5037612;28;20300;-59
2022/12/23 06:20:56;;;;;;;3.35;2.17;;;11.60;88.80;;;;;;5048387;28;20104;-68
2022/12/23 06:23:22;;;;;;;3.05;1.95;;;11.60;88.80;;;;;;5045279;28;20053;-67
2022/12/23 06:25:48;;;;;;;2.15;1.73;;;11.70;88.80;;;;;;5045950;28;20381;-68
2022/12/23 06:28:13;;;;;;;2.60;1.75;;;11.70;88.70;;;;;;5052242;28;20057;-67
2022/12/23 06:30:39;;;;;;;3.00;2.05;;;11.70;88.60;;;;;;5046161;28;20886;-59
2022/12/23 06:33:05;;;;;;;4.07;2.78;;;11.70;88.70;;;;;;5037809;28;20022;-59
2022/12/23 06:35:30;;;;;;;3.72;2.40;;;11.70;88.60;;;;;;5038185;28;20056;-68
2022/12/23 06:37:56;;;;;;;4.80;2.88;;;11.70;88.70;;;;;;5034771;28;20441;-67
2022/12/23 06:40:22;;;;;;;4.07;2.67;;;11.60;88.70;;;;;;5044243;28;20151;-68
2022/12/23 06:42:47;;;;;;;4.00;2.15;;;11.60;88.70;;;;;;5043284;28;20544;-68
2022/12/23 06:45:13;;;;;;;5.60;3.28;;;11.60;88.80;;;;;;5044751;28;20043;-67
2022/12/23 06:47:39;;;;;;;4.40;3.05;;;11.60;88.80;;;;;;5051141;28;20487;-67
2022/12/23 06:50:05;;;;;;;5.70;3.05;;;11.50;88.90;;;;;;5046781;28;20027;-67
2022/12/23 06:52:31;;;;;;;2.53;2.17;;;11.50;88.90;;;;;;5041631;28;20036;-68
2022/12/23 06:54:56;;;;;;;5.93;3.13;;;11.40;89.00;;;;;;5047935;28;20498;-67
2022/12/23 06:57:22;;;;;;;5.50;3.25;;;11.40;89.00;;;;;;5050380;28;20384;-59
2022/12/23 06:59:48;;;;;;;3.65;2.97;;;11.50;89.10;;;;;;5049786;28;20033;-59
2022/12/23 07:02:14;;;;;;;4.47;3.00;;;11.50;89.10;;;;;;5047163;28;20035;-59
2022/12/23 07:04:39;;;;;;;4.32;2.53;;;11.50;89.00;;;;;;5049054;28;20033;-67
2022/12/23 07:07:05;;;;;;;4.00;2.45;;;11.50;88.90;;;;;;5048675;28;20021;-60
2022/12/23 07:09:31;;;;;;;3.60;2.10;;;11.50;88.90;;;;;;5040246;28;20479;-59
2022/12/23 07:11:56;;;;;;;3.90;2.75;;;11.50;88.80;;;;;;5048144;28;20484;-67
2022/12/23 07:14:22;;;;;;;3.05;2.20;;;11.50;88.80;;;;;;5042492;28;20106;-59
2022/12/23 07:16:48;;;;;;;3.95;2.70;;;11.50;88.80;;;;;;5050828;28;20042;-59
2022/12/23 07:19:13;;;;;;;3.60;2.45;;;11.50;88.80;;;;;;5047534;28;20362;-67
2022/12/23 07:21:39;;;;;;;3.65;2.65;;;11.50;88.90;;;;;;5046316;28;20021;-59
2022/12/23 07:24:06;;;;;;;4.40;2.65;;;11.50;88.90;;;;;;5044652;28;20225;-59
2022/12/23 07:26:31;;;;;;;4.25;3.13;;;11.50;88.90;;;;;;5047136;28;20029;-64
2022/12/23 07:28:57;;;;;;;4.55;3.90;;;11.50;88.90;;;;;;5046680;28;20024;-59
2022/12/23 07:31:23;;;;;;;3.55;2.63;;;11.50;88.90;;;;;;5047961;28;20033;-65
2022/12/23 07:33:48;;;;;;;3.70;2.85;;;11.50;88.80;;;;;;5051170;28;20072;-65
2022/12/23 07:36:14;;;;;;;5.22;3.08;;;11.50;88.70;;;;;;5046318;28;20116;-66
2022/12/23 07:38:40;;;;;;;5.53;3.38;;;11.50;88.70;;;;;;5047263;28;20024;-59
2022/12/23 07:41:06;;;;;;;4.90;3.00;;;11.50;88.70;;;;;;5042488;28;20025;-59
2022/12/23 07:43:31;;;;;;;5.68;3.05;;;11.50;88.70;;;;;;5047286;28;20024;-59
2022/12/23 07:45:57;;;;;;;4.00;2.95;;;11.50;88.70;;;;;;5045982;28;20024;-59
2022/12/23 07:48:23;;;;;;;6.78;4.03;;;11.50;88.70;;;;;;5044780;28;20025;-67
2022/12/23 07:50:48;;;;;;;5.40;3.25;;;11.50;88.70;;;;;;5035461;28;20383;-68
2022/12/23 07:53:14;;;;;;;4.40;3.20;;;11.50;88.80;;;;;;5048608;28;20037;-59
2022/12/23 07:55:40;;;;;;;3.95;2.85;;;11.40;88.70;;;;;;5041332;28;20052;-58
2022/12/23 07:58:05;;;;;;;3.35;2.67;;;11.50;88.90;;;;;;5048214;28;20021;-57
2022/12/23 08:00:31;;;;;;;3.95;2.30;;;11.50;88.80;;;;;;5043997;28;20480;-59
2022/12/23 08:02:57;;;;;;;4.78;3.47;;;11.50;88.70;;;;;;5035356;28;20411;-58
2022/12/23 08:05:22;;;;;;;3.72;2.60;;;11.50;88.60;;;;;;5040139;28;20337;-58
2022/12/23 08:07:48;;;;;;;5.35;2.88;;;11.50;88.60;;;;;;5044457;28;20048;-67
2022/12/23 08:10:14;;;;;;;7.15;3.22;;;11.50;88.50;;;;;;5044964;28;20021;-67
2022/12/23 08:12:40;;;;;;;3.53;2.22;;;11.50;88.40;;;;;;5048098;28;20056;-58
2022/12/23 08:15:06;;;;;;;3.35;2.47;;;11.50;88.40;;;;;;5040355;28;20025;-66
2022/12/23 08:17:32;;;;;;;4.53;3.08;;;11.50;89.00;;;;;;5041905;28;20040;-58
2022/12/23 08:19:58;;;;;;;3.38;2.40;;;11.60;88.40;;;;;;5041353;28;20280;-67
2022/12/23 08:22:24;;;;;;;3.30;2.80;;;11.60;88.40;;;;;;5039273;28;20032;-64
2022/12/23 08:24:51;;;;;;;4.28;2.95;;;11.60;88.30;;;;;;5045808;28;20035;-64
2022/12/23 08:27:17;;;;;;;3.75;2.55;;;11.60;88.30;;;;;;5052850;28;20059;-64
2022/12/23 08:29:42;;;;;;;5.03;2.90;;;11.60;88.30;;;;;;5046923;28;20029;-64
2022/12/23 08:32:08;;;;;;;4.82;3.28;;;11.70;88.20;;;;;;5040811;28;20048;-64
2022/12/23 08:34:35;;;;;;;3.67;2.25;;;11.70;88.10;;;;;;5044703;28;20488;-58
2022/12/23 08:37:01;;;;;;;5.40;3.33;;;11.70;88.10;;;;;;5047749;28;20455;-58
2022/12/23 08:39:26;;;;;;;6.13;3.80;;;11.70;88.10;;;;;;5043976;28;20021;-64
2022/12/23 08:41:53;;;;;;;5.10;2.70;;;11.70;88.10;;;;;;5044336;28;20420;-65
2022/12/23 08:44:19;;;;;;;4.45;2.70;;;11.70;88.20;;;;;;5046799;28;20597;-58
2022/12/23 08:46:45;;;;;;;4.85;3.20;;;11.70;88.20;;;;;;5040351;28;20104;-58
2022/12/23 08:49:11;;;;;;;3.40;2.78;;;11.70;88.20;;;;;;5042264;28;20124;-59
2022/12/23 08:51:38;;;;;;;3.53;2.80;;;11.70;88.20;;;;;;5048171;28;20028;-58
2022/12/23 08:54:04;;;;;;;3.30;2.97;;;11.70;88.20;;;;;;5043813;28;20055;-58
2022/12/23 08:56:37;;;;;;;5.07;3.58;;;11.70;88.10;;;;;;5041474;28;20060;-63
2022/12/23 08:59:03;;;;;;;4.40;3.38;;;11.70;88.10;;;;;;5041757;28;20047;-63
2022/12/23 09:01:31;;;;;;;3.78;2.70;;;11.70;88.10;;;;;;5052292;28;20740;-58
2022/12/23 09:04:00;;;;;;;5.28;3.33;;;11.70;88.00;;;;;;5047545;28;20025;-58
2022/12/23 09:06:30;;;;;;;4.90;3.70;;;11.80;88.00;;;;;;5052005;28;20082;-58
2022/12/23 09:08:57;;;;;;;4.97;3.10;;;11.80;88.00;;;;;;5045392;28;20469;-58
2022/12/23 09:11:24;;;;;;;6.65;3.58;;;11.80;88.00;;;;;;5047508;28;20096;-59
2022/12/23 09:13:50;;;;;;;6.00;4.03;;;11.70;87.90;;;;;;5045030;28;20032;-58
2022/12/23 09:16:16;;;;;;;6.82;3.45;;;11.70;88.00;;;;;;5041546;28;20055;-58
2022/12/23 09:18:42;;;;;;;6.78;4.40;;;11.70;88.00;;;;;;5046892;28;20035;-63
2022/12/23 09:21:12;;;;;;;9.82;3.88;;;11.70;88.00;;;;;;5046394;28;20507;-63
2022/12/23 09:23:38;;;;;;;5.22;3.17;;;11.80;88.00;;;;;;5044137;28;20423;-58
2022/12/23 09:26:05;;;;;;;4.95;3.10;;;11.80;88.00;;;;;;5037840;28;20076;-58
2022/12/23 09:28:31;;;;;;;7.80;3.67;;;11.80;88.00;;;;;;5047846;28;20034;-62
2022/12/23 09:30:56;;;;;;;4.63;3.38;;;11.80;88.00;;;;;;5035863;28;20029;-58
2022/12/23 09:33:22;;;;;;;5.07;3.65;;;11.80;88.00;;;;;;5037461;28;20399;-58
2022/12/23 09:35:48;;;;;;;6.13;3.35;;;11.80;87.90;;;;;;5034846;28;20460;-58
2022/12/23 09:38:14;;;;;;;5.55;3.20;;;11.80;87.90;;;;;;5039930;28;20040;-57
2022/12/23 09:40:41;;;;;;;5.20;2.83;;;11.80;87.90;;;;;;5039311;28;20025;-62
2022/12/23 09:43:46;;;;;;;9.60;3.67;;;11.70;87.90;;;;;;5044875;28;20036;-58
2022/12/23 09:46:24;;;;;;;4.25;3.70;;;11.80;87.80;;;;;;5043313;28;20032;-62
2022/12/23 09:49:14;;;;;;;3.55;2.40;;;11.80;88.00;;;;;;5033883;28;20104;-62
2022/12/23 09:51:40;;;;;;;4.70;3.22;;;11.80;88.00;;;;;;5034555;28;20125;-63
2022/12/23 09:54:10;;;;;;;5.60;3.45;;;11.70;88.00;;;;;;5043850;28;20376;-63
2022/12/23 09:56:47;;;;;;;4.60;3.25;;;11.80;88.00;;;;;;5037801;28;20050;-62
2022/12/23 09:59:32;;;;;;;6.05;3.53;;;11.80;87.90;;;;;;5043339;28;20040;-62
2022/12/23 10:02:10;;;;;;;6.13;3.28;;;11.90;87.90;;;;;;5042450;28;20033;-62
2022/12/23 10:05:08;;;;;;;5.35;3.25;;;11.80;87.80;;;;;;5044594;28;20048;-58
2022/12/23 10:07:53;;;;;;;6.45;3.45;;;11.80;87.80;;;;;;5038383;28;20459;-62
2022/12/23 10:10:35;;;;;;;4.57;3.05;;;11.90;87.90;;;;;;5045687;28;20024;-62
2022/12/23 10:13:04;;;;;;;5.57;3.60;;;11.90;87.90;;;;;;5042757;28;20029;-62
2022/12/23 10:15:40;;;;;;;5.25;3.55;;;11.80;87.90;;;;;;5037831;28;20031;-62
2022/12/23 10:18:37;;;;;;;6.97;3.55;;;11.80;87.90;;;;;;5041492;28;20076;-59
2022/12/23 10:21:09;;;;;;;8.80;4.22;;;11.80;88.00;;;;;;5044961;28;20024;-63
2022/12/23 10:23:45;;;;;;;3.90;3.28;;;11.80;88.10;;;;;;5045476;28;20024;-63
2022/12/23 10:26:19;;;;;;;6.43;3.70;;;11.80;88.10;;;;;;5039652;28;20079;-58
2022/12/23 10:28:45;;;;;;;9.45;4.88;;;11.80;88.00;;;;;;5045151;28;20056;-58
2022/12/23 10:31:17;;;;;;;8.32;3.78;;;11.80;88.10;;;;;;5045629;28;20017;-57
2022/12/23 10:33:56;;;;;;;5.70;3.80;;;11.80;88.10;;;;;;5041976;28;20384;-62
2022/12/23 10:36:47;;;;;;;9.45;3.92;;;11.90;88.00;;;;;;5047455;28;20017;-58
2022/12/23 10:39:36;;;;;;;7.75;4.70;;;11.80;87.90;;;;;;5044803;28;20400;-57
2022/12/23 10:42:32;;;;;;;7.72;4.72;;;11.80;88.00;;;;;;5047042;28;20028;-58
2022/12/23 10:45:12;;;;;;;7.10;4.90;;;11.80;88.10;;;;;;5047922;28;20029;-58
2022/12/23 10:48:00;;;;;;;6.60;4.68;;;11.80;88.20;;;;;;5043291;28;20028;-62
2022/12/23 10:50:45;;;;;;;5.93;4.47;;;11.80;88.20;;;;;;5044532;28;20029;-62
2022/12/23 10:53:16;;;;;;;8.10;4.50;;;11.80;88.10;;;;;;5048631;28;20023;-58
2022/12/23 10:55:42;;;;;;;7.03;3.65;;;11.80;88.20;;;;;;5047911;28;20057;-62
2022/12/23 10:58:14;;;;;;;9.18;5.10;;;11.80;88.20;;;;;;5047449;28;20040;-62
2022/12/23 11:00:44;;;;;;;7.28;4.45;;;11.80;88.20;;;;;;5048411;28;20024;-58
2022/12/23 11:03:17;;;;;;;6.00;4.40;;;11.80;88.30;;;;;;5048546;28;20056;-62
2022/12/23 11:05:44;;;;;;;7.45;4.25;;;11.80;88.30;;;;;;5047672;28;20025;-62
2022/12/23 11:08:10;;;;;;;7.28;5.30;;;11.80;88.40;;;;;;5038582;28;20044;-62
2022/12/23 11:10:36;;;;;;;6.80;4.47;;;11.80;88.50;;;;;;5035206;28;20391;-58
2022/12/23 11:13:02;;;;;;;6.78;5.13;;;11.80;88.50;;;;;;5041556;28;20031;-58
2022/12/23 11:15:36;;;;;;;8.15;4.90;;;11.80;88.50;;;;;;5036680;28;20017;-58
2022/12/23 11:18:11;;;;;;;5.57;3.72;;;11.80;88.50;;;;;;5041298;28;20373;-58
2022/12/23 11:20:38;;;;;;;8.50;4.55;;;11.80;88.50;;;;;;5042880;28;20031;-58
2022/12/23 11:23:05;;;;;;;6.43;4.47;;;11.80;88.50;;;;;;5043310;28;20478;-60
2022/12/23 11:25:39;;;;;;;11.80;6.65;;;11.80;88.50;;;;;;5036940;28;20037;-62
2022/12/23 11:28:10;;;;;;;8.13;5.57;;;11.90;88.50;;;;;;5047238;28;20106;-62
2022/12/23 11:30:56;;;;;;;7.47;4.63;;;11.90;88.50;;;;;;5045595;28;20021;-58
2022/12/23 11:33:28;;;;;;;13.55;6.20;;;11.80;88.40;;;;;;5039475;28;20029;-58
2022/12/23 11:36:13;;;;;;;9.23;5.20;;;11.90;88.50;;;;;;5041931;28;20068;-58
2022/12/23 11:39:01;;;;;;;10.80;6.10;;;11.90;88.50;;;;;;5045160;28;20033;-58
2022/12/23 11:41:35;;;;;;;7.78;5.13;;;11.90;88.50;;;;;;5048088;28;20021;-62
2022/12/23 11:44:07;;;;;;;8.63;5.85;;;11.90;88.60;;;;;;5033653;28;20062;-57
2022/12/23 11:46:33;;;;;;;;;;;11.90;88.70;;;;;;5042950;28;20025;-58
2022/12/23 11:49:20;;;;;;;10.40;7.13;;;11.90;88.60;;;;;;5044369;28;19913;-62
2022/12/23 11:52:00;;;;;;;6.45;5.47;;;11.90;88.60;;;;;;5046362;28;20033;-58
2022/12/23 11:54:27;;;;;;;11.02;6.68;;;11.90;88.60;;;;;;5041513;28;20127;-58
2022/12/23 11:56:54;;;;;;;10.55;6.22;;;11.90;88.60;;;;;;5041916;28;20040;-58
2022/12/23 11:59:28;;;;;;;11.75;6.93;;;11.90;88.60;;;;;;5047221;28;20154;-58
2022/12/23 12:01:58;;;;;;;9.18;6.35;;;12.00;88.50;;;;;;5033137;28;20028;-58
2022/12/23 12:04:25;;;;;;;7.68;6.00;;;11.90;88.50;;;;;;5052532;28;20376;-58
2022/12/23 12:06:51;;;;;;;9.80;7.15;;;11.90;88.50;;;;;;5039587;28;20476;-62
2022/12/23 12:09:19;;;;;;;10.65;6.30;;;11.90;88.50;;;;;;5046385;28;20044;-62
2022/12/23 12:11:49;;;;;;;8.23;6.07;;;11.90;88.60;;;;;;5043321;28;20489;-62
2022/12/23 12:14:39;;;;;;;9.35;6.10;;;11.90;88.60;;;;;;5042942;28;20043;-58
2022/12/23 12:17:32;;;;;;;9.07;5.30;;;12.00;88.40;;;;;;5028833;28;20473;-58
2022/12/23 12:20:27;;;;;;;9.75;6.13;;;11.90;88.50;;;;;;5040533;28;20043;-58
2022/12/23 12:23:08;;;;;;;9.88;6.95;;;12.00;88.50;;;;;;5039001;28;20025;-57
2022/12/23 12:25:45;;;;;;;9.18;6.70;;;11.90;88.50;;;;;;5039867;28;20029;-58
2022/12/23 12:28:47;;;;;;;10.77;7.03;;;11.90;88.50;;;;;;5042520;28;20050;-58
2022/12/23 12:31:34;;;;;;;9.37;5.87;;;11.90;88.50;;;;;;5040387;28;20079;-58
2022/12/23 12:34:09;;;;;;;11.68;6.15;;;11.90;88.70;;;;;;5036245;28;20330;-59
2022/12/23 12:36:54;;;;;;;14.40;7.47;;;11.90;88.70;;;;;;5041305;28;20021;-62
2022/12/23 12:39:29;;;;;;;11.93;7.45;;;11.90;88.60;;;;;;5040666;28;20084;-59
2022/12/23 12:42:01;;;;;;;9.00;5.80;;;11.90;88.70;;;;;;5031195;28;20021;-59
2022/12/23 12:44:29;;;;;;;;;;;11.90;88.70;;;;;;5045457;28;20109;-63
2022/12/23 12:47:05;;;;;;;8.18;5.80;;;11.90;88.70;;;;;;5052212;28;19915;-62
2022/12/23 12:50:09;;;;;;;10.50;6.60;;;11.90;88.80;;;;;;5047743;28;20033;-58
2022/12/23 12:52:39;;;;;;;8.02;5.30;;;11.90;88.60;;;;;;5050237;28;20045;-62
2022/12/23 12:55:16;;;;;;;10.60;5.53;;;11.90;88.80;;;;;;5050063;28;20064;-62
2022/12/23 12:57:42;;;;;;;7.57;4.72;;;11.90;88.80;;;;;;5044453;28;20091;-62
2022/12/23 13:00:19;;;;;;;8.32;5.07;;;11.90;88.80;;;;;;5040556;28;20025;-62
2022/12/23 13:03:04;;;;;;;8.40;5.18;;;11.80;88.80;;;;;;5041738;28;20052;-62
2022/12/23 13:05:36;;;;;;;11.07;5.00;;;11.90;88.90;;;;;;5046095;28;20070;-62
2022/12/23 13:08:28;;;;;;;5.20;3.65;;;11.80;88.90;;;;;;5078973;28;20037;-62
2022/12/23 13:11:31;;;;;;;6.97;5.03;;;11.80;88.80;;;;;;5042336;28;20037;-58
2022/12/23 13:14:12;;;;;;;5.95;4.03;;;11.90;88.80;;;;;;5038121;28;20030;-62
2022/12/23 13:17:18;;;;;;;10.77;4.53;;;11.80;88.90;;;;;;5045991;28;20032;-58
2022/12/23 13:20:19;;;;;;;5.70;3.70;;;11.90;88.70;;;;;;5036006;28;20476;-62
2022/12/23 13:22:49;;;;;;;7.03;4.35;;;11.80;88.80;;;;;;5041970;28;20048;-62
2022/12/23 13:25:25;;;;;;;8.38;5.10;;;11.80;88.90;;;;;;5051094;28;20021;-58
2022/12/23 13:28:06;;;;;;;7.20;3.95;;;11.80;88.90;;;;;;5036261;28;20094;-62
2022/12/23 13:30:42;;;;;;;7.00;3.97;;;11.80;88.90;;;;;;5047872;28;20043;-62
2022/12/23 13:33:19;;;;;;;9.95;5.15;;;11.80;88.90;;;;;;5046855;28;20574;-62
2022/12/23 13:35:56;;;;;;;6.05;4.22;;;11.80;88.90;;;;;;5044593;28;20037;-58
2022/12/23 13:38:56;;;;;;;5.90;4.53;;;11.80;88.80;;;;;;5038212;28;20388;-57
2022/12/23 13:41:43;;;;;;;7.30;4.40;;;11.90;88.90;;;;;;5048139;28;20717;-58